»·PEaware :: SWA925 KSFO-KACV

SWA925 :: KSFO-KACV

FLIGHT INFORMATION

Flight Status: Arrived
Operator:
Southwest Airlines
More flights by this operator :: More flights under this callsign
Pilot: John N. (18861)
Aircraft: BOEING 737-800
(B738)
More flights by this aircraft type
Origin: KSFO San Francisco Intl
United States
Destination: KACV Arcata
United States
More flights between these airports :: More routes between these airports
Route: +SFO4 SAU ENI VOMAC
File this flight plan on PilotEdge
Remarks:
Altitude:
(Current/Filed)
280ft
Speed:
(Current/Filed)
440kts
Departed: 26-Sep-18 02:53 PM
Arrived: 26-Sep-18 03:38 PM
Distance/Time
Traveled:
217nm/0:45
Distance/Time
To Go:
Arrived

Flight Plot

Page will automatically refresh every two minutes.

Flight plan parsing failed; only flown route is shown


Map Options




Map Legend


Flown Route
Filed Route
Departure Airport
Arrival Airport
Navaid (VOR, NDB)
Fix

Horizontal Profiles

Position Reports

Time Latitude Longitude Heading Altitude Ground
Speed
26-Sep-18 14:34 37.612782 -122.385834 114 20ft 0kts
26-Sep-18 14:35 37.612781 -122.385833 114 20ft 0kts
26-Sep-18 14:36 37.612781 -122.385831 114 20ft 0kts
26-Sep-18 14:37 37.612780 -122.385829 114 20ft 0kts
26-Sep-18 14:38 37.612779 -122.385828 114 20ft 0kts
26-Sep-18 14:39 37.612779 -122.385826 114 20ft 0kts
26-Sep-18 14:40 37.612899 -122.386163 114 20ft 2kts
26-Sep-18 14:41 37.612932 -122.386253 114 20ft 0kts
26-Sep-18 14:42 37.612931 -122.386252 114 20ft 0kts
26-Sep-18 14:43 37.612931 -122.386250 114 20ft 0kts
26-Sep-18 14:44 37.612930 -122.386249 114 20ft 0kts
26-Sep-18 14:45 37.612929 -122.386247 114 20ft 0kts
26-Sep-18 14:46 37.612929 -122.386245 114 20ft 0kts
26-Sep-18 14:47 37.612918 -122.386212 110 20ft 1kts
26-Sep-18 14:48 37.613060 -122.386357 222 20ft 0kts
26-Sep-18 14:49 37.612488 -122.386819 198 20ft 24kts
26-Sep-18 14:50 37.611293 -122.384941 88 20ft 14kts
26-Sep-18 14:51 37.609411 -122.384040 178 20ft 0kts
26-Sep-18 14:52 37.609228 -122.383768 110 20ft 0kts
26-Sep-18 14:53 37.609228 -122.383767 110 20ft 0kts
26-Sep-18 14:54 37.609533 -122.381919 30 20ft 11kts
26-Sep-18 14:55 37.636476 -122.356673 48 1410ft 191kts
26-Sep-18 14:56 37.682205 -122.294664 47 4494ft 262kts
26-Sep-18 14:57 37.749391 -122.268949 332 8112ft 291kts
26-Sep-18 14:58 37.795046 -122.355655 293 11229ft 324kts
26-Sep-18 14:59 37.836031 -122.469135 293 13701ft 368kts
26-Sep-18 15:00 37.906843 -122.563242 329 16627ft 385kts
26-Sep-18 15:01 38.001941 -122.632578 330 19276ft 401kts
26-Sep-18 15:02 38.100184 -122.705474 330 21605ft 417kts
26-Sep-18 15:03 38.202083 -122.781289 330 23708ft 432kts
26-Sep-18 15:04 38.301843 -122.856305 329 26089ft 431kts
26-Sep-18 15:05 38.387635 -122.919195 335 27945ft 430kts
26-Sep-18 15:06 38.500119 -122.968434 342 28029ft 424kts
26-Sep-18 15:07 38.611883 -123.018242 336 28031ft 425kts
26-Sep-18 15:08 38.719648 -123.080400 336 28032ft 425kts
26-Sep-18 15:09 38.827716 -123.142856 336 28035ft 425kts
26-Sep-18 15:10 38.933664 -123.204490 336 26088ft 423kts
26-Sep-18 15:11 39.040492 -123.266851 336 24142ft 412kts
26-Sep-18 15:12 39.149901 -123.312772 345 24039ft 417kts
26-Sep-18 15:13 39.260929 -123.354664 344 24039ft 412kts
26-Sep-18 15:14 39.368287 -123.395930 344 22979ft 394kts
26-Sep-18 15:15 39.471600 -123.435705 344 21679ft 383kts
26-Sep-18 15:16 39.572634 -123.474825 344 20321ft 376kts
26-Sep-18 15:17 39.671799 -123.513418 344 18817ft 366kts
26-Sep-18 15:18 39.768120 -123.551043 344 17417ft 358kts
26-Sep-18 15:19 39.862821 -123.588168 344 16013ft 349kts
26-Sep-18 15:20 39.954294 -123.624134 344 14614ft 338kts
26-Sep-18 15:21 40.043204 -123.659178 344 13214ft 330kts
26-Sep-18 15:22 40.131918 -123.683572 350 11809ft 321kts
26-Sep-18 15:23 40.215695 -123.704365 350 11212ft 286kts
26-Sep-18 15:24 40.286457 -123.721957 350 11214ft 255kts
26-Sep-18 15:25 40.357496 -123.739626 350 11233ft 266kts
26-Sep-18 15:26 40.429842 -123.757569 350 11234ft 264kts
26-Sep-18 15:27 40.502857 -123.778397 347 10183ft 264kts
26-Sep-18 15:28 40.564989 -123.797362 347 8996ft 237kts
26-Sep-18 15:29 40.607740 -123.848121 311 7963ft 189kts
26-Sep-18 15:30 40.649550 -123.885476 325 6498ft 194kts
26-Sep-18 15:31 40.694242 -123.916525 333 5774ft 173kts
26-Sep-18 15:32 40.737975 -123.945798 332 5242ft 179kts
26-Sep-18 15:33 40.779641 -123.973901 332 4333ft 160kts
26-Sep-18 15:34 40.818211 -123.999944 332 3508ft 153kts
26-Sep-18 15:35 40.855872 -124.025407 333 2702ft 147kts
26-Sep-18 15:36 40.891215 -124.049327 333 1944ft 139kts
26-Sep-18 15:37 40.924677 -124.072002 331 1225ft 131kts
26-Sep-18 15:38 40.957393 -124.094036 328 531ft 133kts
26-Sep-18 15:39 40.980909 -124.110080 328 208ft 43kts
26-Sep-18 15:40 40.974216 -124.108549 174 208ft 32kts
26-Sep-18 15:41 40.971243 -124.105987 147 208ft 0kts
26-Sep-18 15:42 40.971243 -124.105987 147 208ft 0kts

Navigation Log

Ident Type
Flight plan parsing failed, navigation log unavailable